ETGG

Gluecksburg / Meierwik Airport

Gluecksburg, Germany

ETGG 110820Z 07010KT 9999 FEW015 BKN200 00/M02 Q0985 BLU+

Observed Flight Rules
Dec-11 @ 08:20 UTC (54 minutes ago) Visual Flight Rules
Wind Visibility Clouds
70° at 10 knots 10,000+ meters
  • Few at 1,500' AGL
  • Broken at 20,000' AGL
Temperatures Readings
Current 0°C / 32°F
Dewpoint -2°C / 28°F
Humidity 87%
Altimeter 29.08" Hg
Pressure 985 hPa
Elevation 33
Observed Flight Rules
Dec-11 @ 08:20 UTC
(54 minutes ago)
VFR
Wind Visibility
70° at 10 knots 10,000+ meters
Clouds
  • Few at 1,500' AGL
  • Broken at 20,000' AGL
Temperature Dewpoint
0°C / 32°F -2°C / 28°F
Humidity Altimeter Pressure
87% 29.08" Hg 985 hPa